Lykens, Pennsylvania
Current Conditions -  °F | °C
As of 12:31 PM on Wednesday 26 Nov 2014 (Local Time) from KMUI Reporting Station
Light Snow Light Snow  
Wind Chill: 27°   Ceiling: 1200
Heat Index: 32°   Visibility: 3mi
Dew Point: 32°   Wind: 5mph
Humidity: 100%   Direction: 60°ENE
Pressure: 29.99"   Gusts: NA
Location:  40.57°N, 76.7°W
Report Text: KMUI 261731Z AUTO 06004KT 3SM -SN BR SCT007 OVC012 00/00 A2999 RMK AO2 PRESFR $
Loading
Personal Weather Stations






























Interactive Weather Map New forecast layout! Learn more

10-Day Weather Forecast

Advertisements
Track Severe Weather on mobile